Time;durP1;ratioP1;P1;durP2;ratioP2;P2;SDS_P1;SDS_P2;PMS_P1;PMS_P2;Temp;Humidity;BMP_temperature;BMP_pressure;BME280_temperature;BME280_humidity;BME280_pressure;Samples;Min_cycle;Max_cycle;Signal;HPM_P1;HPM_P2
2022/10/25 04:30:37;;;;;;;3.72;1.17;;;;;;;12.65;73.78;96853.97;3471343;23;19927;-79
2022/10/25 04:33:19;;;;;;;1.85;0.98;;;;;;;12.66;73.42;96852.94;4995279;23;20056;-80
2022/10/25 10:37:06;;;;;;;1.63;1.02;;;;;;;35.86;22.47;96998.88;5338507;23;20052;-80
2022/10/25 10:39:34;;;;;;;1.50;0.55;;;;;;;36.60;21.99;97004.34;4916836;29;20052;-81
2022/10/25 10:42:14;;;;;;;2.53;0.55;;;;;;;37.38;20.89;97001.56;4917323;29;20080;-79
2022/10/25 10:45:01;;;;;;;0.90;0.53;;;;;;;38.08;20.52;96993.69;4917534;29;20068;-79
2022/10/25 10:47:33;;;;;;;3.33;0.52;;;;;;;38.63;20.24;96990.28;4917449;29;20063;-79
2022/10/25 10:50:02;;;;;;;1.92;0.73;;;;;;;39.08;19.23;96994.38;4917041;29;20060;-80
2022/10/25 10:52:36;;;;;;;2.08;0.60;;;;;;;39.54;18.82;96997.25;4917244;29;20064;-79
2022/10/25 10:55:04;;;;;;;1.15;0.30;;;;;;;39.70;18.56;96992.44;4917477;29;20052;-80
2022/10/25 10:57:33;;;;;;;2.03;0.50;;;;;;;38.11;20.11;96984.81;4917139;29;20048;-79
2022/10/25 11:00:02;;;;;;;1.95;0.70;;;;;;;37.31;20.57;96989.34;4916887;29;20058;-80
2022/10/25 11:02:38;;;;;;;2.42;0.70;;;;;;;37.86;19.71;96986.91;4916992;29;20061;-80
2022/10/25 11:05:23;;;;;;;3.03;0.73;;;;;;;38.07;19.02;96985.88;4917148;29;20064;-80
2022/10/25 11:07:57;;;;;;;1.83;0.50;;;;;;;39.10;17.70;96992.09;4916592;29;20056;-80
2022/10/25 11:10:30;;;;;;;0.73;0.40;;;;;;;39.04;17.89;96993.53;4917149;29;20052;-79
2022/10/25 11:13:06;;;;;;;1.10;0.40;;;;;;;39.70;18.28;96997.91;4916860;29;20052;-79
2022/10/25 11:15:48;;;;;;;3.22;0.63;;;;;;;40.06;17.00;96982.16;4917022;29;20056;-80
2022/10/25 11:18:19;;;;;;;5.20;0.50;;;;;;;40.22;16.14;96989.44;4916743;29;20400;-80
2022/10/25 11:20:53;;;;;;;2.30;1.40;;;;;;;39.94;17.61;96979.63;4916720;29;20059;-79
2022/10/25 11:23:27;;;;;;;2.28;0.80;;;;;;;40.31;17.02;96979.84;4916778;29;20048;-79
2022/10/25 11:26:01;;;;;;;2.92;1.02;;;;;;;40.90;16.02;96971.28;4916622;29;20515;-79
2022/10/25 11:28:39;;;;;;;0.98;0.30;;;;;;;41.37;15.51;96970.69;4916171;29;20502;-79
2022/10/25 11:31:15;;;;;;;4.00;0.38;;;;;;;41.43;14.87;96981.28;4916575;29;20048;-79
2022/10/25 11:33:57;;;;;;;0.50;0.20;;;;;;;41.24;15.71;96974.84;4916546;29;20063;-79
2022/10/25 11:36:42;;;;;;;1.48;0.40;;;;;;;40.89;16.23;96973.25;4916544;29;20055;-79
2022/10/25 11:39:23;;;;;;;1.13;0.43;;;;;;;40.36;16.07;96967.78;4915715;29;20503;-79
2022/10/25 11:41:54;;;;;;;1.30;0.30;;;;;;;39.98;16.77;96966.81;4916350;29;20060;-79
2022/10/25 11:44:57;;;;;;;1.38;0.43;;;;;;;40.13;17.47;96959.63;4916240;29;20051;-79
2022/10/25 11:47:38;;;;;;;0.43;0.30;;;;;;;40.74;16.71;96955.84;4916026;29;20054;-79
2022/10/25 11:50:22;;;;;;;4.65;0.38;;;;;;;41.23;15.21;96951.34;4916031;29;20498;-79
2022/10/25 11:53:12;;;;;;;1.33;0.45;;;;;;;41.66;15.82;96949.06;4916147;29;20056;-79
2022/10/25 11:55:47;;;;;;;1.63;0.80;;;;;;;42.27;15.13;96943.28;4916324;29;20060;-79
2022/10/25 11:58:33;;;;;;;2.33;0.77;;;;;;;42.57;15.40;96946.59;4915869;29;20060;-78
2022/10/25 12:01:13;;;;;;;4.13;0.80;;;;;;;42.72;14.39;96946.69;4916191;29;20059;-79
2022/10/25 12:03:56;;;;;;;2.30;0.60;;;;;;;42.80;14.72;96942.81;4916201;29;20063;-79
2022/10/25 12:06:33;;;;;;;3.72;0.88;;;;;;;42.70;14.29;96938.06;4915898;29;20055;-79
2022/10/25 12:09:06;;;;;;;1.35;0.45;;;;;;;41.42;15.41;96938.63;4915757;29;20067;-79
2022/10/25 12:11:40;;;;;;;1.05;0.30;;;;;;;39.10;16.99;96934.81;4915764;29;20056;-79
2022/10/25 12:14:13;;;;;;;2.10;0.90;;;;;;;37.09;18.40;96935.50;4915986;29;20056;-79
2022/10/25 12:16:43;;;;;;;2.97;0.50;;;;;;;35.50;20.46;96931.72;4916000;29;20055;-78
2022/10/25 12:19:18;;;;;;;0.50;0.35;;;;;;;34.16;21.54;96935.34;4915564;29;20052;-80
2022/10/25 12:21:50;;;;;;;1.55;0.30;;;;;;;33.12;22.61;96931.78;4916402;29;20079;-80
2022/10/25 12:24:23;;;;;;;2.00;0.77;;;;;;;32.31;23.27;96935.84;4916799;29;20528;-80
2022/10/25 12:26:54;;;;;;;1.83;0.60;;;;;;;31.64;24.29;96938.75;4916250;29;20063;-79
2022/10/25 12:29:28;;;;;;;2.17;0.60;;;;;;;31.03;25.37;96933.78;4915690;29;20060;-80
2022/10/25 12:32:00;;;;;;;1.38;0.30;;;;;;;30.43;25.92;96934.03;4915908;29;20423;-79
2022/10/25 12:34:37;;;;;;;4.10;0.63;;;;;;;29.89;26.63;96928.34;4915699;29;20059;-79
2022/10/25 12:37:13;;;;;;;2.25;0.55;;;;;;;29.47;27.21;96933.66;4915583;29;20467;-79
2022/10/25 12:39:42;;;;;;;1.48;0.50;;;;;;;29.06;27.61;96923.56;4915537;29;20269;-79
2022/10/25 12:42:16;;;;;;;2.30;0.43;;;;;;;28.75;28.42;96923.22;4915894;29;20048;-80
2022/10/25 12:45:03;;;;;;;1.30;0.50;;;;;;;28.45;28.62;96924.44;4918797;29;20246;-79
2022/10/25 12:47:49;;;;;;;2.63;0.45;;;;;;;28.15;29.23;96929.13;4917646;29;20091;-80
2022/10/25 12:50:39;;;;;;;2.45;1.08;;;;;;;27.93;30.23;96921.59;4918443;29;20502;-78
2022/10/25 12:53:39;;;;;;;2.90;0.45;;;;;;;27.69;30.07;96925.03;4925334;29;20062;-80
2022/10/25 12:56:21;;;;;;;1.83;0.47;;;;;;;27.47;31.41;96920.16;4917594;29;20052;-81
2022/10/25 12:59:01;;;;;;;0.45;0.32;;;;;;;27.29;32.79;96908.28;4923390;29;20044;-80
2022/10/25 13:01:42;;;;;;;0.77;0.22;;;;;;;27.10;31.95;96910.03;4919544;29;20066;-80
2022/10/25 13:04:25;;;;;;;1.27;0.60;;;;;;;26.91;31.86;96908.00;4919929;29;20056;-80
2022/10/25 13:06:54;;;;;;;1.55;0.30;;;;;;;26.73;31.48;96905.22;4919406;29;20517;-80
2022/10/25 13:09:23;;;;;;;3.70;0.50;;;;;;;26.55;32.49;96895.94;4919058;29;20052;-80
2022/10/25 13:11:56;;;;;;;;;;;;;;;26.48;32.73;96898.94;4919912;29;20496;-80
2022/10/25 13:14:30;;;;;;;1.00;0.30;;;;;;;26.25;32.78;96901.19;4919422;29;19923;-80
2022/10/25 13:17:31;;;;;;;1.98;0.30;;;;;;;26.03;32.65;96903.44;4919421;29;20430;-80
2022/10/25 13:20:43;;;;;;;0.90;0.32;;;;;;;25.85;32.58;96902.91;4918283;29;20139;-79
2022/10/25 13:23:59;;;;;;;1.60;0.30;;;;;;;25.72;32.48;96898.16;4919600;29;20415;-79
2022/10/25 13:26:33;;;;;;;1.52;0.30;;;;;;;25.58;32.70;96892.59;4905862;29;20056;-79
2022/10/25 13:29:37;;;;;;;1.75;0.20;;;;;;;25.46;33.04;96887.53;4918585;29;20048;-79
2022/10/25 13:32:22;;;;;;;2.30;0.43;;;;;;;25.36;34.50;96895.53;4919745;29;20052;-79
2022/10/25 13:35:02;;;;;;;0.88;0.40;;;;;;;25.21;33.39;96892.91;4920324;29;20083;-79
2022/10/25 13:37:45;;;;;;;0.75;0.20;;;;;;;25.04;32.80;96887.81;4903283;29;20078;-78
2022/10/25 13:40:28;;;;;;;3.10;0.45;;;;;;;24.88;34.13;96890.50;4920243;29;20056;-78
2022/10/25 13:43:10;;;;;;;1.30;0.40;;;;;;;24.79;33.79;96893.94;4920110;29;20060;-78
2022/10/25 13:45:50;;;;;;;2.63;0.45;;;;;;;24.69;33.69;96881.41;4919428;29;20518;-79
2022/10/25 13:48:30;;;;;;;2.40;0.63;;;;;;;24.60;33.30;96889.13;4919767;29;20058;-79
2022/10/25 13:54:03;;;;;;;1.15;0.45;;;;;;;24.43;34.02;96883.19;4919959;29;20052;-78
2022/10/25 14:04:50;;;;;;;1.73;0.30;;;;;;;24.00;35.29;96874.53;4917744;29;20067;-79
2022/10/25 14:07:47;;;;;;;2.63;0.43;;;;;;;23.94;35.44;96871.06;4919525;29;20056;-79
2022/10/25 14:10:26;;;;;;;1.23;0.30;;;;;;;23.87;36.76;96875.81;4919232;29;20052;-79
2022/10/25 14:13:07;;;;;;;1.17;0.40;;;;;;;23.80;36.21;96878.72;4919263;29;20063;-78
2022/10/25 14:15:45;;;;;;;2.00;0.30;;;;;;;23.73;35.81;96870.13;4919048;29;20052;-79
2022/10/25 14:18:19;;;;;;;2.85;0.68;;;;;;;23.67;36.14;96873.84;4919127;29;20048;-79
2022/10/25 14:20:52;;;;;;;2.58;0.50;;;;;;;23.58;35.85;96862.06;4919044;29;20491;-78
2022/10/25 14:23:22;;;;;;;1.83;0.60;;;;;;;23.47;36.18;96871.06;4919239;29;20063;-78
2022/10/25 14:25:55;;;;;;;2.78;0.40;;;;;;;23.36;36.21;96870.22;4919224;29;20052;-78
2022/10/25 14:28:23;;;;;;;;;;;;;;;23.34;36.50;96870.47;4919632;29;20052;-79
2022/10/25 14:30:54;;;;;;;2.70;0.30;;;;;;;23.22;37.20;96864.50;4919074;29;20010;-79
2022/10/25 14:33:24;;;;;;;2.25;0.35;;;;;;;23.10;36.53;96866.56;4919461;29;20059;-79
2022/10/25 14:35:56;;;;;;;1.98;0.60;;;;;;;23.00;37.09;96862.78;4919014;29;20056;-79
2022/10/25 14:38:26;;;;;;;3.75;0.50;;;;;;;22.95;37.47;96865.34;4919014;29;20127;-79
2022/10/25 14:40:56;;;;;;;3.47;0.55;;;;;;;22.87;38.03;96865.03;4918850;29;20067;-79
2022/10/25 14:43:28;;;;;;;3.42;0.40;;;;;;;22.79;38.16;96868.97;4918969;29;20048;-79
2022/10/25 14:45:58;;;;;;;1.98;0.52;;;;;;;22.69;37.66;96863.56;4918669;29;20521;-79
2022/10/25 14:48:26;;;;;;;2.05;0.55;;;;;;;22.62;38.44;96858.44;4918610;29;20051;-79
2022/10/25 14:50:59;;;;;;;0.60;0.30;;;;;;;22.59;38.71;96867.72;4918839;29;20052;-79
2022/10/25 14:53:28;;;;;;;1.30;0.45;;;;;;;22.53;38.50;96865.28;4918671;29;20535;-79
2022/10/25 14:55:59;;;;;;;2.42;0.45;;;;;;;22.47;39.63;96859.09;4918312;29;20056;-79
2022/10/25 14:58:32;;;;;;;1.07;0.63;;;;;;;22.41;38.61;96854.78;4918507;29;20131;-79
2022/10/25 15:01:06;;;;;;;1.48;0.75;;;;;;;22.34;39.07;96852.31;4918652;29;20060;-79
2022/10/25 15:03:42;;;;;;;4.78;0.50;;;;;;;22.26;39.19;96851.97;4918230;29;20113;-79
2022/10/25 15:06:16;;;;;;;5.18;0.40;;;;;;;22.18;39.71;96850.53;4917922;29;20095;-79
2022/10/25 15:08:49;;;;;;;3.55;0.50;;;;;;;22.14;40.15;96844.13;4922593;29;20048;-79
2022/10/25 15:11:23;;;;;;;1.42;0.43;;;;;;;22.04;39.58;96847.47;4932559;29;20048;-79
2022/10/25 15:13:57;;;;;;;1.55;0.68;;;;;;;21.95;40.08;96840.97;4924631;29;20079;-79
2022/10/25 15:16:36;;;;;;;1.87;0.80;;;;;;;21.83;40.01;96843.78;4918402;29;20052;-79
2022/10/25 15:19:17;;;;;;;1.25;0.47;;;;;;;21.72;40.19;96845.50;4917943;29;20477;-79
2022/10/25 15:21:49;;;;;;;2.75;0.93;;;;;;;21.60;40.43;96848.28;4918007;29;20056;-79
2022/10/25 15:24:22;;;;;;;2.25;0.73;;;;;;;21.49;40.94;96851.84;4917292;29;20052;-79
2022/10/25 15:26:54;;;;;;;2.85;0.70;;;;;;;21.44;41.33;96851.78;4917946;29;20056;-79
2022/10/25 15:29:45;;;;;;;1.75;0.50;;;;;;;21.42;42.63;96847.75;4917513;29;20072;-79
2022/10/25 15:32:17;;;;;;;4.38;0.57;;;;;;;21.34;42.29;96846.28;4917934;29;20063;-79
2022/10/25 15:34:48;;;;;;;3.25;0.75;;;;;;;21.27;42.94;96843.81;4917732;29;20066;-79
2022/10/25 15:37:21;;;;;;;6.90;0.70;;;;;;;21.20;42.75;96845.84;4917653;29;20052;-79
2022/10/25 15:39:52;;;;;;;1.85;0.40;;;;;;;21.12;43.38;96848.91;4917728;29;20052;-79
2022/10/25 15:42:22;;;;;;;2.42;0.70;;;;;;;21.05;43.80;96848.25;4917635;29;20052;-78
2022/10/25 15:44:52;;;;;;;2.33;0.60;;;;;;;20.95;44.29;96855.03;4917803;29;20074;-79
2022/10/25 15:47:29;;;;;;;3.90;1.00;;;;;;;20.85;44.59;96843.47;4917634;29;20052;-79
2022/10/25 15:50:00;;;;;;;5.00;0.85;;;;;;;20.72;44.84;96844.56;4917237;29;20566;-79
2022/10/25 15:52:32;;;;;;;7.00;1.15;;;;;;;20.60;45.67;96854.44;4917477;29;20056;-79
2022/10/25 15:55:01;;;;;;;;;;;;;;;20.55;45.67;96855.13;4917869;29;20056;-78
2022/10/25 15:57:31;;;;;;;6.43;1.23;;;;;;;20.34;46.32;96851.31;4917755;29;19923;-79
2022/10/25 16:00:03;;;;;;;6.18;1.02;;;;;;;20.15;46.77;96853.34;4917381;29;20503;-79
2022/10/25 16:02:33;;;;;;;4.35;1.00;;;;;;;19.98;47.21;96852.50;4917487;29;20078;-79
2022/10/25 16:05:02;;;;;;;3.38;0.82;;;;;;;19.84;47.45;96854.63;4917357;29;20059;-79
2022/10/25 16:07:33;;;;;;;2.67;1.20;;;;;;;19.71;48.06;96851.19;4917587;29;20059;-79
2022/10/25 16:10:03;;;;;;;4.72;0.77;;;;;;;19.60;48.17;96849.34;4917045;29;20048;-79
2022/10/25 16:12:36;;;;;;;12.88;1.85;;;;;;;19.49;48.87;96852.81;4917242;29;20060;-79
2022/10/25 16:15:08;;;;;;;9.23;1.73;;;;;;;19.37;48.93;96854.66;4917197;29;20115;-79
2022/10/25 16:17:40;;;;;;;9.98;1.60;;;;;;;19.21;49.00;96854.31;4916922;29;20064;-79
2022/10/25 16:20:18;;;;;;;5.93;1.13;;;;;;;19.07;49.74;96850.31;4917005;29;20083;-79
2022/10/25 16:22:51;;;;;;;9.95;1.48;;;;;;;18.92;50.03;96848.09;4917123;29;20056;-79
2022/10/25 16:25:22;;;;;;;6.55;0.95;;;;;;;18.76;49.98;96854.84;4917207;29;20052;-79
2022/10/25 16:27:55;;;;;;;11.18;1.48;;;;;;;18.60;50.34;96858.13;4916569;29;20147;-79
2022/10/25 16:30:27;;;;;;;4.40;0.80;;;;;;;18.47;50.51;96862.56;4900000;29;20104;-79
2022/10/25 16:32:57;;;;;;;2.80;0.82;;;;;;;18.34;50.79;96857.47;4916997;29;20063;-79
2022/10/25 16:35:26;;;;;;;5.80;2.63;;;;;;;18.22;51.03;96857.44;4921771;29;20070;-79
2022/10/25 16:37:56;;;;;;;7.88;2.20;;;;;;;18.10;51.70;96857.41;5416351;23;20088;-79
2022/10/25 16:40:24;;;;;;;7.88;1.90;;;;;;;18.01;51.79;96857.91;4927960;29;20076;-78
2022/10/25 16:42:53;;;;;;;10.07;1.73;;;;;;;17.91;52.11;96858.47;4917365;29;20052;-79
2022/10/25 16:45:24;;;;;;;3.72;1.10;;;;;;;17.81;52.52;96864.22;4916865;29;20083;-79
2022/10/25 16:47:54;;;;;;;4.30;1.27;;;;;;;17.72;52.24;96868.19;4916561;29;20123;-79
2022/10/25 16:50:23;;;;;;;7.25;1.30;;;;;;;17.63;52.28;96865.03;4916693;29;20041;-79
2022/10/25 16:52:52;;;;;;;4.95;1.40;;;;;;;17.53;52.59;96867.34;4916919;29;20059;-78
2022/10/25 16:55:21;;;;;;;6.65;1.30;;;;;;;17.42;52.95;96860.19;4916519;29;20056;-77
2022/10/25 16:57:49;;;;;;;4.22;1.50;;;;;;;17.32;53.18;96857.22;4912951;29;20051;-78
2022/10/25 17:00:17;;;;;;;3.13;1.50;;;;;;;17.20;53.25;96865.84;4897461;29;20056;-77
2022/10/25 17:02:44;;;;;;;5.10;1.67;;;;;;;17.11;53.75;96859.25;4902183;29;20044;-78
2022/10/25 17:05:18;;;;;;;5.07;1.70;;;;;;;17.06;54.02;96859.91;4908627;29;20059;-77
2022/10/25 17:07:45;;;;;;;6.60;1.70;;;;;;;17.00;53.99;96863.41;4914671;29;20145;-79
2022/10/25 17:10:13;;;;;;;9.35;2.30;;;;;;;16.91;54.29;96858.63;4915655;29;20048;-78
2022/10/25 17:12:47;;;;;;;6.90;1.90;;;;;;;16.80;54.57;96860.94;4916259;29;20060;-77
2022/10/25 17:15:16;;;;;;;5.35;1.10;;;;;;;16.70;54.54;96863.19;4915605;29;20132;-77
2022/10/25 17:17:44;;;;;;;3.60;1.08;;;;;;;16.63;54.59;96865.88;4915916;29;20052;-78
2022/10/25 17:20:14;;;;;;;5.18;1.50;;;;;;;16.53;54.85;96860.31;4916196;29;20056;-77
2022/10/25 17:22:42;;;;;;;7.13;1.92;;;;;;;16.43;55.19;96855.47;4915549;29;20052;-77
2022/10/25 17:25:11;;;;;;;3.92;1.80;;;;;;;16.34;55.57;96861.22;4915888;29;20056;-77
2022/10/25 17:27:41;;;;;;;3.58;2.28;;;;;;;16.27;55.80;96858.63;4915563;29;20055;-78
2022/10/25 17:30:11;;;;;;;5.32;2.22;;;;;;;16.20;56.07;96857.84;4915548;29;20055;-77
2022/10/25 17:32:39;;;;;;;4.03;1.70;;;;;;;16.09;55.94;96848.00;4915810;29;20052;-77
2022/10/25 17:35:07;;;;;;;8.32;3.35;;;;;;;16.00;56.33;96853.50;4915918;29;20056;-78
2022/10/25 17:37:34;;;;;;;10.38;2.08;;;;;;;15.94;56.48;96856.16;4918880;29;20503;-77
2022/10/25 17:40:04;;;;;;;7.93;2.83;;;;;;;15.88;56.89;96860.44;4919547;29;20090;-78
2022/10/25 17:42:32;;;;;;;6.78;2.75;;;;;;;15.84;57.10;96864.50;4902140;29;20087;-77
2022/10/25 17:45:00;;;;;;;5.50;3.10;;;;;;;15.79;56.99;96859.06;4900282;29;20055;-77
2022/10/25 17:47:29;;;;;;;8.45;3.05;;;;;;;15.73;57.36;96852.81;4917108;29;20403;-77
2022/10/25 17:50:00;;;;;;;4.68;2.28;;;;;;;15.71;57.39;96856.63;4918148;29;20498;-78
2022/10/25 17:52:29;;;;;;;5.40;2.78;;;;;;;15.70;57.35;96855.00;4934841;29;20047;-78
2022/10/25 17:54:57;;;;;;;5.97;2.35;;;;;;;15.64;57.63;96846.94;4929971;29;20055;-77
2022/10/25 17:57:25;;;;;;;6.78;2.10;;;;;;;15.61;57.66;96844.72;4934158;29;20059;-78
2022/10/25 17:59:53;;;;;;;4.60;1.95;;;;;;;15.58;57.79;96845.13;4933761;29;20052;-78
2022/10/25 18:02:21;;;;;;;7.10;2.90;;;;;;;15.53;57.92;96844.16;4922620;29;20048;-77
2022/10/25 18:04:50;;;;;;;6.47;3.25;;;;;;;15.45;58.43;96839.91;4919721;29;20140;-77
2022/10/25 18:07:38;;;;;;;7.68;3.47;;;;;;;15.39;58.34;96840.72;4918018;29;20583;-77
2022/10/25 18:10:06;;;;;;;11.07;2.72;;;;;;;15.33;58.63;96839.75;4918497;29;20052;-77
2022/10/25 18:12:33;;;;;;;7.82;2.70;;;;;;;15.30;58.76;96842.78;4917861;29;20793;-76
2022/10/25 18:15:01;;;;;;;6.05;2.17;;;;;;;15.28;58.39;96844.00;4916786;29;20056;-78
2022/10/25 18:17:29;;;;;;;8.73;2.17;;;;;;;15.29;58.84;96848.25;4917447;29;20059;-77
2022/10/25 18:19:58;;;;;;;5.82;2.22;;;;;;;15.28;59.03;96844.00;4917384;29;20059;-77
2022/10/25 18:22:25;;;;;;;12.98;5.97;;;;;;;15.26;59.11;96846.81;4917899;29;20414;-77
2022/10/25 18:24:53;;;;;;;10.82;5.13;;;;;;;15.25;59.00;96850.47;4917799;29;20514;-77
2022/10/25 18:27:20;;;;;;;9.57;3.80;;;;;;;15.26;59.43;96852.06;4917843;29;20127;-77
2022/10/25 18:29:48;;;;;;;6.47;2.97;;;;;;;15.29;59.59;96856.94;4917816;29;20051;-77
2022/10/25 18:32:15;;;;;;;11.80;4.15;;;;;;;15.30;59.45;96852.47;4917705;29;20071;-77
2022/10/25 18:34:43;;;;;;;15.32;7.10;;;;;;;15.27;59.32;96848.44;4918250;29;20048;-77
2022/10/25 18:37:12;;;;;;;8.05;5.05;;;;;;;15.19;59.70;96844.22;4918140;29;20052;-77
2022/10/25 18:39:39;;;;;;;8.88;3.10;;;;;;;15.14;59.71;96835.34;4918248;29;20051;-78
2022/10/25 18:42:07;;;;;;;6.50;2.75;;;;;;;15.06;59.77;96836.34;4918668;29;20052;-77
2022/10/25 18:44:34;;;;;;;6.43;3.28;;;;;;;14.99;60.05;96830.31;4918757;29;20052;-78
2022/10/25 18:47:02;;;;;;;8.02;3.78;;;;;;;14.96;60.28;96842.03;4917595;29;20052;-77
2022/10/25 18:49:29;;;;;;;8.48;3.35;;;;;;;14.93;60.29;96846.88;4926458;29;20058;-78
2022/10/25 18:51:57;;;;;;;4.30;2.72;;;;;;;14.90;60.59;96842.03;4920254;29;20434;-78
2022/10/25 18:54:27;;;;;;;6.82;3.40;;;;;;;14.90;61.25;96849.91;4918200;29;20059;-78
2022/10/25 18:56:55;;;;;;;10.75;4.50;;;;;;;14.92;60.91;96832.13;4919197;29;20052;-77
2022/10/25 18:59:22;;;;;;;10.68;4.50;;;;;;;14.90;60.61;96834.16;4914996;29;20052;-79
2022/10/25 19:01:50;;;;;;;10.27;3.10;;;;;;;14.88;60.83;96831.72;4917312;29;20503;-77
2022/10/25 19:04:18;;;;;;;9.65;3.47;;;;;;;14.86;61.05;96825.84;4917905;29;20068;-77
2022/10/25 19:06:46;;;;;;;11.93;3.25;;;;;;;14.81;61.08;96823.03;4917218;29;20048;-77
2022/10/25 19:09:14;;;;;;;6.35;2.92;;;;;;;14.78;61.15;96820.81;4906952;29;20044;-78
2022/10/25 19:11:43;;;;;;;15.43;4.85;;;;;;;14.72;61.51;96825.06;4917065;29;20479;-77
2022/10/25 19:14:11;;;;;;;6.80;3.60;;;;;;;14.73;62.08;96825.88;4917014;29;20063;-77
2022/10/25 19:16:40;;;;;;;7.10;3.03;;;;;;;14.73;61.52;96825.88;4918186;29;20052;-78
2022/10/25 19:19:08;;;;;;;5.97;2.85;;;;;;;14.68;61.80;96818.59;4917457;29;20048;-78
2022/10/25 19:21:35;;;;;;;8.38;3.63;;;;;;;14.67;61.97;96832.75;4917084;29;20040;-77
2022/10/25 19:24:03;;;;;;;9.95;3.78;;;;;;;14.67;61.80;96827.50;4917308;29;20060;-77
2022/10/25 19:26:31;;;;;;;6.20;2.88;;;;;;;14.67;61.95;96819.63;4917620;29;20138;-77
2022/10/25 19:29:01;;;;;;;9.45;3.83;;;;;;;14.75;66.28;96829.91;4913432;29;20148;-77
2022/10/25 19:31:35;;;;;;;5.55;3.10;;;;;;;14.82;67.28;96828.09;4898539;29;20051;-78
2022/10/25 19:34:03;;;;;;;7.45;3.10;;;;;;;14.83;64.82;96826.28;4898292;29;20139;-77
2022/10/25 19:36:31;;;;;;;10.82;3.85;;;;;;;14.82;63.24;96822.84;4898471;29;20068;-79
2022/10/25 19:39:00;;;;;;;9.45;3.80;;;;;;;14.77;63.70;96825.25;4898292;29;20053;-78
2022/10/25 19:41:28;;;;;;;14.85;5.90;;;;;;;14.74;63.22;96828.31;4905314;29;20046;-77
2022/10/25 19:43:57;;;;;;;9.07;4.60;;;;;;;14.73;64.69;96826.66;4917058;29;20076;-77
2022/10/25 19:46:27;;;;;;;12.38;3.80;;;;;;;14.76;63.36;96817.59;4917045;29;20063;-77
2022/10/25 19:48:55;;;;;;;7.38;3.05;;;;;;;14.71;62.57;96807.69;4917011;29;20059;-77
2022/10/25 19:51:23;;;;;;;7.25;3.20;;;;;;;14.66;62.55;96804.88;4916994;29;20052;-77
2022/10/25 19:53:51;;;;;;;10.25;4.18;;;;;;;14.66;63.74;96812.75;4916046;29;20060;-77
2022/10/25 19:56:21;;;;;;;12.05;4.80;;;;;;;14.66;63.06;96804.06;4916054;29;20052;-77
2022/10/25 19:58:51;;;;;;;10.32;4.65;;;;;;;14.71;65.76;96806.88;4916188;29;20076;-77
2022/10/25 20:01:21;;;;;;;6.22;3.30;;;;;;;14.68;63.48;96808.09;4916610;29;20502;-77
2022/10/25 20:03:56;;;;;;;3.88;2.60;;;;;;;14.67;65.12;96805.66;4916777;29;20059;-77
2022/10/25 20:06:29;;;;;;;8.27;3.65;;;;;;;14.68;64.50;96808.09;4906660;29;20072;-77
2022/10/25 20:09:06;;;;;;;5.70;2.80;;;;;;;14.69;64.20;96804.44;4916812;29;20044;-78
2022/10/25 20:11:35;;;;;;;9.57;3.42;;;;;;;14.62;63.10;96798.41;4916207;29;20064;-77
2022/10/25 20:14:05;;;;;;;4.70;2.35;;;;;;;14.55;63.57;96798.41;4916471;29;20135;-78
2022/10/25 20:16:46;;;;;;;10.25;2.92;;;;;;;14.54;65.39;96811.69;4916054;29;20510;-78
2022/10/25 20:19:29;;;;;;;5.05;2.47;;;;;;;14.56;66.82;96805.28;4916977;29;20052;-78
2022/10/25 20:22:01;;;;;;;5.50;2.35;;;;;;;14.60;66.96;96810.91;4925678;29;20048;-78
2022/10/25 20:24:32;;;;;;;3.92;2.40;;;;;;;14.59;66.97;96815.38;4940248;29;20059;-78
2022/10/25 20:27:14;;;;;;;6.20;2.67;;;;;;;14.54;64.55;96814.31;4939770;29;20052;-78
2022/10/25 20:29:51;;;;;;;8.40;2.70;;;;;;;14.48;66.17;96809.88;4918731;29;20422;-78
2022/10/25 20:32:46;;;;;;;5.82;4.00;;;;;;;14.40;64.44;96805.63;4917151;29;20050;-79
2022/10/25 20:35:21;;;;;;;5.78;4.13;;;;;;;14.36;65.21;96804.41;4917029;29;20506;-77
2022/10/25 20:37:56;;;;;;;11.52;5.68;;;;;;;14.37;65.46;96814.72;4916578;29;20048;-78
2022/10/25 20:40:44;;;;;;;10.35;5.57;;;;;;;14.37;65.22;96817.34;4901515;29;20422;-78
2022/10/25 20:43:36;;;;;;;13.75;6.53;;;;;;;14.33;65.82;96808.25;4916690;29;20514;-78
2022/10/25 20:46:11;;;;;;;10.32;6.13;;;;;;;14.24;63.93;96814.69;4930899;29;20099;-78
2022/10/25 20:48:49;;;;;;;13.38;5.97;;;;;;;14.17;65.32;96813.88;4938966;29;20469;-78
2022/10/25 20:51:32;;;;;;;8.57;5.07;;;;;;;14.12;64.45;96808.41;4920792;29;20045;-78
2022/10/25 20:54:13;;;;;;;19.48;5.85;;;;;;;14.11;64.38;96801.56;4918842;29;20063;-78
2022/10/25 20:56:50;;;;;;;10.48;5.57;;;;;;;14.11;64.25;96809.44;4917905;29;20116;-78
2022/10/25 20:59:25;;;;;;;9.75;5.65;;;;;;;14.15;66.30;96808.03;4916737;29;20123;-78
2022/10/25 21:01:55;;;;;;;13.13;6.13;;;;;;;14.18;67.10;96810.25;4900389;29;20467;-77
2022/10/25 21:04:26;;;;;;;11.45;6.82;;;;;;;14.15;65.10;96816.69;4917181;29;20052;-78
2022/10/25 21:07:25;;;;;;;10.40;6.03;;;;;;;14.09;65.63;96809.63;4915891;29;20055;-77
2022/10/25 21:09:56;;;;;;;13.90;5.82;;;;;;;13.99;64.75;96809.19;4915328;29;20056;-78
2022/10/25 21:12:25;;;;;;;9.07;5.97;;;;;;;13.94;64.80;96809.78;4919009;29;20130;-78
2022/10/25 21:14:58;;;;;;;9.52;5.90;;;;;;;13.95;65.16;96805.34;4920280;29;20131;-77
2022/10/25 21:17:36;;;;;;;6.05;5.18;;;;;;;14.00;67.99;96801.13;4919597;29;20048;-78
2022/10/25 21:20:16;;;;;;;10.45;6.15;;;;;;;14.07;68.16;96798.50;4920694;29;20068;-78
2022/10/25 21:22:56;;;;;;;9.73;6.68;;;;;;;14.07;66.98;96795.91;4903672;29;20048;-77
2022/10/25 21:25:28;;;;;;;8.25;5.70;;;;;;;13.98;65.08;96783.97;4920244;29;20051;-77
2022/10/25 21:27:57;;;;;;;13.18;5.78;;;;;;;13.98;66.89;96789.22;4919944;29;20065;-78
2022/10/25 21:33:20;;;;;;;8.27;4.47;;;;;;;13.98;66.29;96782.16;4919134;29;20054;-79
2022/10/25 21:42:23;;;;;;;5.10;2.67;;;;;;;14.01;65.37;96768.66;4920342;29;20048;-79
2022/10/25 21:45:42;;;;;;;3.72;2.10;;;;;;;14.08;66.47;96770.47;4919715;29;20059;-78
2022/10/25 21:50:53;;;;;;;1.65;1.40;;;;;;;14.11;65.68;96768.25;4917533;29;20466;-80
2022/10/25 21:53:21;;;;;;;5.60;1.75;;;;;;;14.15;65.95;96766.06;4919188;29;20100;-80
2022/10/25 21:55:50;;;;;;;3.45;1.40;;;;;;;14.17;65.47;96759.59;4918819;29;20204;-80
2022/10/25 21:58:17;;;;;;;2.42;1.02;;;;;;;14.22;65.37;96759.00;4899861;29;20061;-80
2022/10/25 22:00:45;;;;;;;6.43;1.70;;;;;;;14.23;64.87;96750.09;4900056;29;20056;-80
2022/10/25 22:03:12;;;;;;;3.08;2.00;;;;;;;14.24;65.13;96753.56;4899988;29;20048;-80
2022/10/25 22:05:42;;;;;;;4.55;1.75;;;;;;;14.24;65.06;96754.34;4900059;29;20063;-80
2022/10/25 22:08:10;;;;;;;3.88;1.38;;;;;;;14.26;65.07;96752.34;4900265;29;20086;-80
2022/10/25 22:10:37;;;;;;;3.03;1.60;;;;;;;14.29;65.01;96756.38;4899926;29;20059;-80
2022/10/25 22:13:06;;;;;;;3.80;1.45;;;;;;;14.31;65.62;96756.97;4899776;29;20511;-79
2022/10/25 22:15:34;;;;;;;5.15;1.77;;;;;;;14.35;65.17;96756.38;4899689;29;20422;-80
2022/10/25 22:18:02;;;;;;;3.28;1.90;;;;;;;14.35;64.47;96753.75;4899544;29;20057;-80
2022/10/25 22:20:29;;;;;;;3.75;1.80;;;;;;;14.32;64.32;96751.53;4899825;29;20053;-80
2022/10/25 22:22:57;;;;;;;4.53;1.80;;;;;;;14.31;64.63;96749.09;4899290;29;20052;-80
2022/10/25 22:25:24;;;;;;;2.97;1.45;;;;;;;14.32;64.51;96755.97;4899190;29;20053;-80
2022/10/25 22:27:52;;;;;;;3.30;1.70;;;;;;;14.35;64.51;96756.38;4899327;29;20088;-80
2022/10/25 22:30:21;;;;;;;2.30;1.58;;;;;;;14.38;64.28;96755.16;4899575;29;20479;-79
2022/10/25 22:32:49;;;;;;;4.28;1.85;;;;;;;14.39;64.57;96762.03;4899391;29;20423;-80
2022/10/25 22:35:17;;;;;;;3.83;1.95;;;;;;;14.40;64.11;96753.94;4899400;29;20057;-80
